Time;durP1;ratioP1;P1;durP2;ratioP2;P2;SDS_P1;SDS_P2;PMS_P1;PMS_P2;Temp;Humidity;BMP_temperature;BMP_pressure;BME280_temperature;BME280_humidity;BME280_pressure;Samples;Min_cycle;Max_cycle;Signal;HPM_P1;HPM_P2
2024/01/06 00:00:55;;;;;;;13.07;3.87;;;4.60;99.90;;;;;;4180594;28;20932;-80
2024/01/06 00:02:57;;;;;;;11.43;3.70;;;4.00;99.90;;;;;;4178394;28;20457;-81
2024/01/06 00:04:59;;;;;;;5.67;3.30;;;4.00;99.90;;;;;;4161440;28;20234;-81
2024/01/06 00:07:01;;;;;;;6.23;3.40;;;3.90;99.90;;;;;;4182775;28;21031;-80
2024/01/06 00:09:03;;;;;;;7.47;3.60;;;3.90;99.90;;;;;;4180407;28;20452;-80
2024/01/06 00:11:05;;;;;;;8.60;3.47;;;3.90;99.90;;;;;;4177164;28;20453;-80
2024/01/06 00:13:07;;;;;;;4.53;3.13;;;4.10;99.90;;;;;;4167050;28;20475;-80
2024/01/06 00:15:11;;;;;;;4.80;2.70;;;4.00;99.90;;;;;;4177491;28;20488;-80
2024/01/06 00:17:13;;;;;;;5.43;2.70;;;3.80;99.90;;;;;;4176664;28;21004;-81
2024/01/06 00:19:17;;;;;;;6.47;3.67;;;3.80;99.90;;;;;;4184336;28;20459;-80
2024/01/06 00:21:19;;;;;;;7.70;3.10;;;3.80;99.90;;;;;;4177008;28;20444;-80
2024/01/06 00:23:21;;;;;;;8.10;3.30;;;3.80;99.90;;;;;;4175425;28;20942;-80
2024/01/06 00:25:23;;;;;;;6.50;3.70;;;3.80;99.90;;;;;;4179244;28;20490;-79
2024/01/06 00:27:24;;;;;;;7.53;3.60;;;3.70;99.90;;;;;;4178669;28;20442;-81
2024/01/06 00:29:26;;;;;;;8.33;3.73;;;3.70;99.90;;;;;;4181003;28;20441;-79
2024/01/06 00:31:29;;;;;;;10.13;4.07;;;3.70;99.90;;;;;;4161404;28;20735;-80
2024/01/06 00:33:31;;;;;;;8.27;3.93;;;3.70;99.90;;;;;;4176760;28;20445;-79
2024/01/06 00:35:34;;;;;;;9.00;3.90;;;3.80;99.90;;;;;;4176110;28;20484;-80
2024/01/06 00:37:35;;;;;;;8.40;3.60;;;3.70;99.90;;;;;;4174428;28;20462;-81
2024/01/06 00:39:37;;;;;;;9.70;3.63;;;3.70;99.90;;;;;;4175510;28;20502;-80
2024/01/06 00:41:39;;;;;;;6.53;3.40;;;3.70;99.90;;;;;;4178280;28;20817;-80
2024/01/06 00:43:41;;;;;;;9.67;3.57;;;3.60;99.90;;;;;;4177799;28;20447;-81
2024/01/06 00:45:43;;;;;;;8.00;3.80;;;3.60;99.90;;;;;;4178382;28;20804;-80
2024/01/06 00:47:50;;;;;;;9.53;3.80;;;3.40;99.90;;;;;;4179715;28;20842;-81
2024/01/06 00:49:52;;;;;;;8.07;3.50;;;3.60;99.90;;;;;;4178821;28;20932;-80
2024/01/06 00:51:54;;;;;;;7.80;3.83;;;3.50;99.90;;;;;;4180142;28;20457;-81
2024/01/06 00:53:56;;;;;;;8.53;3.90;;;3.50;99.90;;;;;;4183211;28;20433;-81
2024/01/06 00:55:57;;;;;;;11.33;4.67;;;3.50;99.90;;;;;;4181325;28;20486;-81
2024/01/06 00:58:19;;;;;;;8.77;4.37;;;3.50;99.90;;;;;;4186958;28;20461;-81
2024/01/06 01:00:22;;;;;;;8.33;3.67;;;3.40;99.90;;;;;;4178930;28;20451;-81
2024/01/06 01:02:24;;;;;;;7.53;3.40;;;3.40;99.90;;;;;;4176769;28;20448;-80
2024/01/06 01:04:27;;;;;;;9.83;3.93;;;3.30;99.90;;;;;;4176513;28;21032;-81
2024/01/06 01:06:28;;;;;;;8.17;3.73;;;3.30;99.90;;;;;;4177326;28;20565;-80
2024/01/06 01:08:31;;;;;;;8.87;3.57;;;3.30;99.90;;;;;;4175380;28;20450;-80
2024/01/06 01:10:33;;;;;;;9.17;3.80;;;3.30;99.90;;;;;;4182266;28;20206;-80
2024/01/06 01:12:36;;;;;;;9.73;3.80;;;3.30;99.90;;;;;;4180376;28;20508;-81
2024/01/06 01:14:38;;;;;;;8.43;3.37;;;3.30;99.90;;;;;;4181505;28;20464;-80
2024/01/06 01:16:40;;;;;;;7.30;3.50;;;3.30;99.90;;;;;;4174647;28;20502;-81
2024/01/06 01:18:40;;;;;;;9.23;3.77;;;3.30;99.90;;;;;;4180011;28;20508;-81
2024/01/06 01:20:44;;;;;;;7.47;3.43;;;3.30;99.90;;;;;;4185990;28;20450;-81
2024/01/06 01:22:46;;;;;;;6.93;3.50;;;3.20;99.90;;;;;;4163924;28;20217;-81
2024/01/06 01:24:48;;;;;;;9.43;3.40;;;3.20;99.90;;;;;;4179124;28;20466;-80
2024/01/06 01:26:50;;;;;;;7.60;3.70;;;3.10;99.90;;;;;;4181128;28;20562;-80
2024/01/06 01:28:51;;;;;;;16.07;5.93;;;3.20;99.90;;;;;;4181129;28;20504;-80
2024/01/06 01:30:53;;;;;;;11.00;5.33;;;3.10;99.90;;;;;;4176332;28;20889;-79
2024/01/06 01:32:55;;;;;;;11.10;4.40;;;3.10;99.90;;;;;;4180542;28;20213;-80
2024/01/06 01:34:56;;;;;;;8.83;4.27;;;3.20;99.90;;;;;;4170987;28;20995;-80
2024/01/06 01:37:00;;;;;;;8.73;4.40;;;3.20;99.90;;;;;;4173139;28;20462;-80
2024/01/06 01:39:02;;;;;;;7.13;3.90;;;3.10;99.90;;;;;;4176056;28;20218;-80
2024/01/06 01:41:04;;;;;;;6.67;3.93;;;3.10;99.90;;;;;;4179200;28;20805;-80
2024/01/06 01:43:06;;;;;;;8.67;3.93;;;3.10;99.90;;;;;;4174800;28;20500;-80
2024/01/06 01:45:09;;;;;;;7.90;3.90;;;3.10;99.90;;;;;;4183638;28;20513;-80
2024/01/06 01:47:11;;;;;;;6.83;3.77;;;3.10;99.90;;;;;;4180352;28;20503;-80
2024/01/06 01:49:14;;;;;;;6.90;4.00;;;3.00;99.90;;;;;;4174892;28;20469;-80
2024/01/06 01:51:15;;;;;;;7.60;3.80;;;3.00;99.90;;;;;;4180589;28;20851;-80
2024/01/06 01:53:19;;;;;;;7.33;3.97;;;3.00;99.90;;;;;;4185049;28;20473;-81
2024/01/06 01:55:21;;;;;;;7.43;3.27;;;3.00;99.90;;;;;;4181412;28;20970;-81
2024/01/06 01:57:26;;;;;;;8.03;3.90;;;3.00;99.90;;;;;;4182281;28;20947;-82
2024/01/06 01:59:28;;;;;;;11.33;4.50;;;3.00;99.90;;;;;;4186364;28;20442;-81
2024/01/06 02:01:30;;;;;;;7.60;3.83;;;3.00;99.90;;;;;;4179935;28;20441;-81
2024/01/06 02:03:32;;;;;;;6.27;3.90;;;3.00;99.90;;;;;;4173274;28;20562;-81
2024/01/06 02:05:34;;;;;;;8.07;4.13;;;2.90;99.90;;;;;;4175063;28;20513;-81
2024/01/06 02:07:36;;;;;;;6.83;3.80;;;2.90;99.90;;;;;;4177836;28;20498;-81
2024/01/06 02:09:40;;;;;;;10.23;4.83;;;3.00;99.90;;;;;;4177173;28;20528;-79
2024/01/06 02:11:41;;;;;;;10.37;4.20;;;2.90;99.90;;;;;;4178382;28;21018;-79
2024/01/06 02:13:42;;;;;;;5.70;3.30;;;2.90;99.90;;;;;;4178907;28;20445;-80
2024/01/06 02:15:47;;;;;;;10.90;4.27;;;2.90;99.90;;;;;;4179378;28;20551;-81
2024/01/06 02:17:48;;;;;;;7.80;4.00;;;2.90;99.90;;;;;;4183696;28;20208;-80
2024/01/06 02:19:51;;;;;;;9.37;4.03;;;2.90;99.90;;;;;;4188260;28;20457;-80
2024/01/06 02:21:54;;;;;;;8.20;4.10;;;2.80;99.90;;;;;;4174171;28;20453;-80
2024/01/06 02:23:57;;;;;;;9.30;4.03;;;2.80;99.90;;;;;;4157221;28;20631;-81
2024/01/06 02:25:57;;;;;;;7.27;3.70;;;2.80;99.90;;;;;;4179076;28;20516;-81
2024/01/06 02:27:59;;;;;;;10.37;4.43;;;2.70;99.90;;;;;;4178475;28;21171;-81
2024/01/06 02:30:01;;;;;;;14.90;4.50;;;2.70;99.90;;;;;;4176039;28;20203;-81
2024/01/06 02:32:04;;;;;;;6.93;4.13;;;2.70;99.90;;;;;;4182582;28;20437;-80
2024/01/06 02:34:06;;;;;;;14.87;5.23;;;2.70;99.90;;;;;;4182039;28;20482;-80
2024/01/06 02:36:17;;;;;;;8.70;4.17;;;2.60;99.90;;;;;;4160901;28;20562;-81
2024/01/06 02:38:20;;;;;;;7.60;3.80;;;2.60;99.90;;;;;;4174578;28;20929;-81
2024/01/06 02:40:22;;;;;;;10.23;4.10;;;2.60;99.90;;;;;;4176745;28;20442;-79
2024/01/06 02:42:25;;;;;;;7.13;4.40;;;2.80;99.90;;;;;;4179838;28;20453;-81
2024/01/06 02:44:27;;;;;;;9.60;4.20;;;2.60;99.90;;;;;;4177642;28;20486;-79
2024/01/06 02:46:29;;;;;;;7.73;3.97;;;2.80;99.90;;;;;;4175132;28;20846;-79
2024/01/06 02:48:31;;;;;;;12.87;4.50;;;2.50;99.90;;;;;;4164452;28;20449;-79
2024/01/06 02:50:32;;;;;;;9.90;4.80;;;2.60;99.90;;;;;;4163133;28;20820;-79
2024/01/06 02:52:33;;;;;;;10.93;4.40;;;2.40;99.90;;;;;;4176586;28;20536;-80
2024/01/06 02:54:37;;;;;;;7.37;4.20;;;2.40;99.90;;;;;;4171628;28;20687;-80
2024/01/06 02:56:39;;;;;;;7.10;4.13;;;2.40;99.90;;;;;;4180530;28;20466;-80
2024/01/06 02:58:41;;;;;;;7.87;4.47;;;2.40;99.90;;;;;;4178314;28;20495;-80
2024/01/06 03:00:45;;;;;;;10.27;3.73;;;2.40;99.90;;;;;;4178539;28;20449;-83
2024/01/06 03:02:47;;;;;;;8.93;4.03;;;2.40;99.90;;;;;;4186072;28;20512;-80
2024/01/06 03:04:48;;;;;;;9.40;3.97;;;2.30;99.90;;;;;;4178873;28;20222;-79
2024/01/06 03:06:53;;;;;;;10.90;4.27;;;2.30;99.90;;;;;;4178994;28;20456;-80
2024/01/06 03:08:55;;;;;;;9.37;4.53;;;2.30;99.90;;;;;;4172030;28;20477;-79
2024/01/06 03:10:58;;;;;;;9.37;4.40;;;2.50;99.90;;;;;;4177994;28;20525;-81
2024/01/06 03:13:00;;;;;;;9.77;4.30;;;2.30;99.90;;;;;;4186697;28;21037;-80
2024/01/06 03:15:02;;;;;;;8.70;4.20;;;2.30;99.90;;;;;;4175652;28;20520;-81
2024/01/06 03:17:05;;;;;;;12.00;4.00;;;2.30;99.90;;;;;;4178169;28;20496;-80
2024/01/06 03:19:06;;;;;;;10.63;4.57;;;3.00;99.90;;;;;;4173230;28;20451;-80
2024/01/06 03:21:18;;;;;;;9.30;4.77;;;2.30;99.90;;;;;;4180070;28;20820;-80
2024/01/06 03:23:20;;;;;;;18.67;5.13;;;2.30;99.90;;;;;;4176386;28;20532;-79
2024/01/06 03:25:21;;;;;;;5.70;3.70;;;2.20;99.90;;;;;;4174841;28;20469;-79
2024/01/06 03:27:25;;;;;;;9.27;4.20;;;2.30;99.90;;;;;;4183646;28;20445;-79
2024/01/06 03:29:27;;;;;;;12.77;4.27;;;2.20;99.90;;;;;;4181833;28;20488;-79
2024/01/06 03:31:29;;;;;;;9.00;4.87;;;2.20;99.90;;;;;;4175316;28;20452;-79
2024/01/06 03:33:31;;;;;;;8.77;4.20;;;2.20;99.90;;;;;;4158971;28;20492;-79
2024/01/06 03:35:33;;;;;;;9.77;4.50;;;2.20;99.90;;;;;;4177700;28;21048;-80
2024/01/06 03:37:35;;;;;;;15.60;5.37;;;2.20;99.90;;;;;;4177522;28;20451;-81
2024/01/06 03:39:37;;;;;;;13.80;4.80;;;2.20;99.90;;;;;;4181841;28;20515;-80
2024/01/06 03:41:38;;;;;;;8.00;4.30;;;2.20;99.90;;;;;;4178444;28;20441;-80
2024/01/06 03:43:41;;;;;;;11.77;4.53;;;2.20;99.90;;;;;;4180948;28;20440;-80
2024/01/06 03:45:43;;;;;;;6.63;4.10;;;2.30;99.90;;;;;;4177135;28;20511;-81
2024/01/06 03:47:45;;;;;;;8.47;4.23;;;2.40;99.90;;;;;;4161795;28;20449;-81
2024/01/06 03:49:46;;;;;;;9.70;4.40;;;2.10;99.90;;;;;;4180330;28;20522;-81
2024/01/06 03:51:48;;;;;;;8.80;4.47;;;2.10;99.90;;;;;;4174219;28;20453;-80
2024/01/06 03:53:50;;;;;;;8.77;4.03;;;2.10;99.90;;;;;;4175255;28;20491;-79
2024/01/06 03:55:52;;;;;;;7.30;4.37;;;2.20;99.90;;;;;;4176616;28;20465;-80
2024/01/06 03:57:53;;;;;;;10.57;4.47;;;2.80;99.90;;;;;;4180811;28;20445;-80
2024/01/06 03:59:57;;;;;;;15.60;4.90;;;2.10;99.90;;;;;;4180697;28;20495;-80
2024/01/06 04:01:59;;;;;;;6.77;3.80;;;2.40;99.90;;;;;;4175243;28;20986;-79
2024/01/06 04:04:00;;;;;;;11.30;4.87;;;2.10;99.90;;;;;;4176846;28;20515;-80
2024/01/06 04:06:02;;;;;;;10.30;4.23;;;2.80;99.90;;;;;;4184189;28;20536;-81
2024/01/06 04:08:05;;;;;;;6.90;4.03;;;2.00;99.90;;;;;;4178306;28;20441;-80
2024/01/06 04:10:07;;;;;;;9.17;4.37;;;2.00;99.90;;;;;;4185095;28;20451;-79
2024/01/06 04:12:09;;;;;;;7.53;3.60;;;2.00;99.90;;;;;;4183519;28;20449;-79
2024/01/06 04:14:11;;;;;;;8.07;4.03;;;2.00;99.90;;;;;;4158743;28;21075;-79
2024/01/06 04:16:14;;;;;;;9.20;3.87;;;2.20;99.90;;;;;;4171074;28;21024;-79
2024/01/06 04:18:15;;;;;;;8.80;4.37;;;2.00;99.90;;;;;;4170954;28;20454;-81
2024/01/06 04:20:17;;;;;;;8.33;3.60;;;1.90;99.90;;;;;;4173009;28;20834;-80
2024/01/06 04:22:18;;;;;;;8.30;4.17;;;1.90;99.90;;;;;;4177345;28;20207;-79
2024/01/06 04:24:21;;;;;;;7.97;4.10;;;1.90;99.90;;;;;;4174287;28;20572;-79
2024/01/06 04:26:22;;;;;;;7.67;3.70;;;1.90;99.90;;;;;;4179386;28;20795;-81
2024/01/06 04:28:24;;;;;;;8.97;3.80;;;1.90;99.90;;;;;;4174886;28;20444;-79
2024/01/06 04:30:26;;;;;;;7.90;3.47;;;1.80;99.90;;;;;;4178465;28;20479;-79
2024/01/06 04:32:29;;;;;;;8.90;4.50;;;1.80;99.90;;;;;;4181558;28;20535;-80
2024/01/06 04:34:31;;;;;;;8.07;3.93;;;1.80;99.90;;;;;;4175872;28;20481;-80
2024/01/06 04:36:33;;;;;;;8.00;4.23;;;1.80;99.90;;;;;;4177013;28;20480;-79
2024/01/06 04:38:35;;;;;;;10.67;4.60;;;1.70;99.90;;;;;;4178897;28;20893;-79
2024/01/06 04:40:36;;;;;;;13.80;6.17;;;1.70;99.90;;;;;;4182323;28;20444;-81
2024/01/06 04:42:38;;;;;;;12.93;5.53;;;1.70;99.90;;;;;;4166496;28;20450;-80
2024/01/06 04:44:40;;;;;;;9.77;5.13;;;1.70;99.90;;;;;;4183027;28;20975;-80
2024/01/06 04:46:42;;;;;;;9.50;4.93;;;1.90;99.90;;;;;;4182695;28;20499;-80
2024/01/06 04:48:46;;;;;;;9.13;4.60;;;1.70;99.90;;;;;;4178880;28;20438;-80
2024/01/06 04:50:47;;;;;;;10.40;4.53;;;1.70;99.90;;;;;;4186673;28;20484;-80
2024/01/06 04:52:48;;;;;;;14.40;4.87;;;1.70;99.90;;;;;;4186453;28;20452;-80
2024/01/06 04:54:50;;;;;;;9.60;4.20;;;1.80;99.90;;;;;;4182813;28;20491;-80
2024/01/06 04:56:52;;;;;;;8.10;4.10;;;1.90;99.90;;;;;;4182950;28;20215;-80
2024/01/06 04:58:54;;;;;;;6.90;3.80;;;1.60;99.90;;;;;;4183823;28;20465;-81
2024/01/06 05:00:56;;;;;;;7.97;4.13;;;1.50;99.90;;;;;;4185263;28;20516;-81
2024/01/06 05:02:58;;;;;;;8.00;4.50;;;1.60;99.90;;;;;;4182418;28;20468;-81
2024/01/06 05:05:02;;;;;;;10.30;4.90;;;1.60;99.90;;;;;;4177175;28;20583;-81
2024/01/06 05:07:04;;;;;;;11.83;4.83;;;1.70;99.90;;;;;;4183013;28;20924;-81
2024/01/06 05:09:06;;;;;;;7.70;4.37;;;1.60;99.90;;;;;;4179571;28;20446;-81
2024/01/06 05:11:08;;;;;;;10.30;4.40;;;1.60;99.90;;;;;;4182547;28;20511;-80
2024/01/06 05:13:10;;;;;;;9.90;4.30;;;1.60;99.90;;;;;;4165829;28;20863;-81
2024/01/06 05:15:12;;;;;;;11.17;4.50;;;1.70;99.90;;;;;;4180216;28;20473;-81
2024/01/06 05:17:14;;;;;;;8.60;4.50;;;2.20;99.90;;;;;;4185940;28;20523;-81
2024/01/06 05:19:20;;;;;;;6.83;3.93;;;1.70;99.90;;;;;;4184180;28;20447;-81
2024/01/06 05:21:25;;;;;;;8.03;4.17;;;2.20;99.90;;;;;;4182096;28;20460;-81
2024/01/06 05:23:27;;;;;;;7.60;4.10;;;1.70;99.90;;;;;;4184144;28;20494;-81
2024/01/06 05:25:29;;;;;;;8.53;4.67;;;1.70;99.90;;;;;;4178163;28;20530;-81
2024/01/06 05:27:31;;;;;;;9.87;4.90;;;1.90;99.90;;;;;;4179753;28;20464;-80
2024/01/06 05:29:33;;;;;;;9.57;5.40;;;1.60;99.90;;;;;;4184191;28;20467;-81
2024/01/06 05:31:35;;;;;;;11.60;4.93;;;1.70;99.90;;;;;;4184222;28;20448;-81
2024/01/06 05:33:37;;;;;;;11.07;5.10;;;2.20;99.90;;;;;;4183984;28;20440;-81
2024/01/06 05:35:39;;;;;;;8.20;4.50;;;1.60;99.90;;;;;;4181853;28;20464;-81
2024/01/06 05:37:42;;;;;;;9.13;4.80;;;1.60;99.90;;;;;;4184437;28;20501;-80
2024/01/06 05:39:44;;;;;;;10.00;4.60;;;1.60;99.90;;;;;;4185344;28;20846;-81
2024/01/06 05:41:46;;;;;;;9.40;4.90;;;2.00;99.90;;;;;;4184370;28;20828;-81
2024/01/06 05:43:48;;;;;;;9.60;4.50;;;1.50;99.90;;;;;;4185273;28;20449;-81
2024/01/06 05:45:50;;;;;;;9.57;4.93;;;1.50;99.90;;;;;;4184302;28;20495;-81
2024/01/06 05:47:52;;;;;;;12.17;4.90;;;1.50;99.90;;;;;;4184897;28;20453;-81
2024/01/06 05:49:53;;;;;;;7.40;4.30;;;1.50;99.90;;;;;;4180972;28;20653;-80
2024/01/06 05:51:55;;;;;;;9.80;4.93;;;1.40;99.90;;;;;;4186939;28;20445;-81
2024/01/06 05:53:58;;;;;;;9.03;4.47;;;2.10;99.90;;;;;;4181036;28;20277;-80
2024/01/06 05:56:00;;;;;;;9.27;5.00;;;1.30;99.90;;;;;;4190765;28;20482;-81
2024/01/06 05:58:02;;;;;;;9.33;5.17;;;1.90;99.90;;;;;;4184201;28;20485;-81
2024/01/06 06:00:07;;;;;;;10.87;5.23;;;1.40;99.90;;;;;;4185275;28;20528;-81
2024/01/06 06:02:09;;;;;;;10.57;5.23;;;1.40;99.90;;;;;;4183993;28;20445;-81
2024/01/06 06:04:11;;;;;;;10.30;5.07;;;1.40;99.90;;;;;;4186653;28;20465;-81
2024/01/06 06:06:13;;;;;;;14.10;5.23;;;1.40;99.90;;;;;;4179491;28;20472;-81
2024/01/06 06:08:15;;;;;;;12.77;5.23;;;1.30;99.90;;;;;;4181963;28;20476;-81
2024/01/06 06:10:19;;;;;;;10.90;5.73;;;1.30;99.90;;;;;;4178393;28;20456;-80
2024/01/06 06:12:20;;;;;;;11.97;5.27;;;1.30;99.90;;;;;;4180411;28;20444;-80
2024/01/06 06:14:22;;;;;;;11.17;6.10;;;0.80;99.90;;;;;;4184864;28;20465;-80
2024/01/06 06:16:24;;;;;;;11.97;5.87;;;1.30;99.90;;;;;;4187229;28;20211;-80
2024/01/06 06:18:30;;;;;;;12.77;6.13;;;1.30;99.90;;;;;;4188434;28;20483;-80
2024/01/06 06:20:41;;;;;;;12.47;6.33;;;1.30;99.90;;;;;;4189409;28;20511;-83
2024/01/06 07:06:42;;;;;;;10.30;5.23;;;1.30;99.90;;;;;;3995081;29;20553;-84
2024/01/06 07:08:44;;;;;;;12.43;5.40;;;1.30;99.90;;;;;;4050071;29;20774;-82
2024/01/06 07:10:46;;;;;;;10.80;5.53;;;1.40;99.90;;;;;;4055343;29;20449;-82
2024/01/06 07:12:48;;;;;;;11.83;5.17;;;1.80;99.90;;;;;;4068782;28;20467;-82
2024/01/06 07:14:50;;;;;;;12.43;5.83;;;1.40;99.90;;;;;;4170543;28;20469;-82
2024/01/06 07:16:52;;;;;;;11.17;5.97;;;1.50;99.90;;;;;;4188105;28;20520;-82
2024/01/06 07:18:54;;;;;;;9.23;5.93;;;1.60;99.90;;;;;;4185177;28;20956;-81
2024/01/06 07:20:56;;;;;;;11.03;5.83;;;1.80;99.90;;;;;;4187011;28;20789;-84
2024/01/06 07:22:58;;;;;;;10.67;5.83;;;1.50;99.90;;;;;;4180139;28;20458;-84
2024/01/06 07:25:01;;;;;;;19.10;6.63;;;1.60;99.90;;;;;;4183707;28;20468;-82
2024/01/06 07:27:04;;;;;;;14.90;6.33;;;2.40;99.90;;;;;;4181097;28;20538;-81
2024/01/06 07:31:36;;;;;;;11.07;6.03;;;1.70;99.90;;;;;;4183526;28;20459;-83
2024/01/06 07:34:12;;;;;;;9.03;5.80;;;1.70;99.90;;;;;;4190344;28;20508;-83
2024/01/06 07:42:25;;;;;;;8.70;5.30;;;1.80;99.90;;;;;;4192404;28;20464;-80
2024/01/06 08:06:20;;;;;;;14.57;6.00;;;2.20;99.90;;;;;;4110182;28;20452;-82
2024/01/06 08:12:12;;;;;;;10.27;6.20;;;2.30;99.90;;;;;;4173843;28;20468;-81
2024/01/06 08:14:17;;;;;;;10.30;5.73;;;3.00;99.90;;;;;;4186635;28;20520;-80
2024/01/06 08:16:19;;;;;;;10.87;5.57;;;2.30;99.90;;;;;;4187568;28;20453;-83
2024/01/06 08:18:22;;;;;;;10.63;5.33;;;2.30;99.90;;;;;;4183937;28;20481;-82
2024/01/06 08:20:24;;;;;;;10.53;5.50;;;3.20;99.90;;;;;;4186396;28;20888;-82
2024/01/06 08:22:27;;;;;;;12.67;6.10;;;2.40;99.90;;;;;;4193256;28;20476;-83
2024/01/06 08:24:33;;;;;;;12.00;6.33;;;2.50;99.90;;;;;;4181801;28;20486;-82
2024/01/06 08:26:46;;;;;;;11.20;5.23;;;2.50;99.90;;;;;;4185926;28;20465;-82
2024/01/06 08:28:52;;;;;;;9.90;5.00;;;2.50;99.90;;;;;;4183755;28;20916;-82
2024/01/06 08:30:57;;;;;;;8.40;5.57;;;2.50;99.90;;;;;;4185017;28;20441;-82
2024/01/06 08:33:00;;;;;;;11.73;5.70;;;2.50;99.90;;;;;;4181539;28;21079;-81
2024/01/06 08:35:03;;;;;;;11.87;6.10;;;2.60;99.90;;;;;;4182590;28;20476;-81
2024/01/06 08:37:05;;;;;;;10.37;5.80;;;2.60;99.90;;;;;;4183752;28;20532;-82
2024/01/06 08:39:09;;;;;;;11.10;5.73;;;2.80;99.90;;;;;;4188239;28;20515;-82
2024/01/06 08:41:10;;;;;;;10.97;5.40;;;2.70;99.90;;;;;;4187376;28;20476;-81
2024/01/06 08:43:13;;;;;;;15.00;6.37;;;3.40;99.90;;;;;;4190299;28;20781;-81
2024/01/06 08:45:15;;;;;;;11.63;6.43;;;2.70;99.90;;;;;;4183115;28;20473;-82
2024/01/06 08:47:17;;;;;;;14.87;6.80;;;2.70;99.90;;;;;;4178543;28;20509;-82
2024/01/06 08:49:19;;;;;;;13.63;6.70;;;2.80;99.90;;;;;;4187323;28;20445;-82
2024/01/06 08:51:21;;;;;;;10.40;6.03;;;2.80;99.90;;;;;;4187562;28;20547;-82
2024/01/06 08:53:22;;;;;;;9.57;5.47;;;4.00;99.90;;;;;;4189382;28;20435;-82
2024/01/06 08:55:25;;;;;;;11.27;5.80;;;2.80;99.90;;;;;;4188095;28;20477;-82
2024/01/06 08:57:27;;;;;;;12.27;5.97;;;2.80;99.90;;;;;;4193100;28;20288;-82
2024/01/06 08:59:30;;;;;;;10.03;5.20;;;2.90;99.90;;;;;;4181007;28;20437;-81
2024/01/06 09:01:31;;;;;;;11.80;6.23;;;3.30;99.90;;;;;;4190659;28;20465;-81
2024/01/06 09:03:33;;;;;;;9.90;5.70;;;3.00;99.90;;;;;;4183115;28;20472;-82
2024/01/06 09:05:36;;;;;;;14.57;6.17;;;3.00;99.90;;;;;;4192023;28;20545;-81
2024/01/06 09:07:38;;;;;;;11.73;6.03;;;3.00;99.90;;;;;;4185877;28;20445;-82
2024/01/06 09:09:39;;;;;;;9.57;5.73;;;3.00;99.90;;;;;;4186588;28;20845;-81
2024/01/06 09:11:44;;;;;;;9.20;5.10;;;3.00;99.90;;;;;;4187725;28;20446;-82
2024/01/06 09:13:46;;;;;;;10.37;5.27;;;2.80;99.90;;;;;;4188656;28;20989;-82
2024/01/06 09:15:48;;;;;;;10.50;5.50;;;3.10;99.90;;;;;;4190082;28;20491;-81
2024/01/06 09:17:50;;;;;;;9.97;5.60;;;3.10;99.90;;;;;;4182659;28;20474;-81
2024/01/06 09:19:53;;;;;;;10.13;5.20;;;3.30;99.90;;;;;;4182893;28;20441;-82
2024/01/06 09:21:55;;;;;;;9.60;5.17;;;3.10;99.90;;;;;;4167432;28;21018;-82
2024/01/06 09:23:57;;;;;;;8.63;5.20;;;3.30;99.90;;;;;;4189311;28;20452;-82
2024/01/06 09:25:59;;;;;;;8.07;5.00;;;3.20;99.90;;;;;;4184039;28;20491;-82
2024/01/06 09:28:03;;;;;;;7.77;5.17;;;3.20;99.90;;;;;;4188868;28;20448;-82
2024/01/06 09:30:07;;;;;;;12.40;5.70;;;3.20;99.90;;;;;;4184330;28;20448;-82
2024/01/06 09:32:08;;;;;;;9.77;5.13;;;3.20;99.90;;;;;;4178817;28;20446;-82
2024/01/06 09:34:12;;;;;;;9.40;5.33;;;3.20;99.90;;;;;;4187902;28;20495;-82
2024/01/06 09:36:14;;;;;;;8.93;5.33;;;3.30;99.90;;;;;;4186909;28;20487;-83
2024/01/06 09:38:17;;;;;;;8.53;5.10;;;3.30;99.90;;;;;;4181177;28;20473;-83
2024/01/06 09:40:23;;;;;;;14.13;5.97;;;3.30;99.90;;;;;;4184850;28;20501;-83
2024/01/06 09:42:26;;;;;;;9.60;5.33;;;3.30;99.90;;;;;;4178049;28;21122;-82
2024/01/06 09:44:28;;;;;;;12.47;5.63;;;3.40;99.90;;;;;;4181359;28;20512;-81
2024/01/06 09:46:30;;;;;;;8.90;5.30;;;3.40;99.90;;;;;;4180627;28;20442;-82
2024/01/06 09:48:36;;;;;;;18.30;7.20;;;3.40;99.90;;;;;;4181099;28;20531;-82
2024/01/06 09:50:41;;;;;;;16.10;6.87;;;3.50;99.90;;;;;;4179219;28;20442;-83
2024/01/06 09:52:43;;;;;;;17.17;6.53;;;3.50;99.90;;;;;;4182011;28;20514;-83
2024/01/06 09:54:50;;;;;;;13.63;7.27;;;4.00;99.90;;;;;;4181462;28;20463;-84
2024/01/06 09:56:52;;;;;;;13.97;6.80;;;3.70;99.90;;;;;;4184519;28;20530;-83
2024/01/06 09:58:55;;;;;;;24.93;11.83;;;3.90;99.90;;;;;;4181474;28;20602;-82
2024/01/06 10:00:58;;;;;;;24.70;12.43;;;4.10;99.90;;;;;;4185190;28;20450;-83
2024/01/06 10:03:00;;;;;;;18.63;10.83;;;4.30;99.90;;;;;;4181358;28;20443;-83
2024/01/06 10:05:03;;;;;;;16.77;8.63;;;3.80;99.90;;;;;;4179597;28;20514;-83
2024/01/06 10:07:05;;;;;;;12.13;7.17;;;3.80;99.90;;;;;;4173642;28;20473;-84
2024/01/06 10:09:07;;;;;;;14.37;7.63;;;3.90;99.90;;;;;;4186673;28;21095;-83
2024/01/06 10:11:11;;;;;;;15.00;7.17;;;3.90;99.90;;;;;;4180134;28;20814;-83
2024/01/06 10:13:18;;;;;;;12.27;7.57;;;4.20;99.90;;;;;;4176872;28;20452;-83
2024/01/06 10:15:21;;;;;;;13.23;7.47;;;3.90;99.90;;;;;;4178734;28;20466;-84
2024/01/06 10:17:24;;;;;;;14.80;7.53;;;3.90;99.90;;;;;;4184398;28;20451;-82
2024/01/06 10:19:26;;;;;;;14.80;8.40;;;3.90;99.90;;;;;;4188756;28;20483;-82
2024/01/06 10:21:35;;;;;;;16.93;8.57;;;4.00;99.90;;;;;;4187536;28;20460;-85
2024/01/06 10:23:38;;;;;;;14.27;8.10;;;4.00;99.90;;;;;;4177598;28;20527;-82
2024/01/06 10:25:42;;;;;;;14.73;8.33;;;4.00;99.90;;;;;;4184298;28;21269;-82
2024/01/06 10:27:44;;;;;;;16.00;7.83;;;4.00;99.90;;;;;;4178084;28;20550;-82
2024/01/06 10:29:46;;;;;;;13.10;8.07;;;4.20;99.90;;;;;;4183521;28;20441;-84
2024/01/06 10:31:52;;;;;;;17.53;8.37;;;4.10;99.90;;;;;;4184255;28;20504;-79
2024/01/06 10:33:55;;;;;;;18.43;8.20;;;4.10;99.90;;;;;;4176334;28;20461;-81
2024/01/06 10:35:58;;;;;;;14.87;8.50;;;4.50;99.90;;;;;;4185829;28;20503;-83
2024/01/06 10:38:00;;;;;;;15.87;8.80;;;4.40;99.90;;;;;;4181061;28;20486;-81
2024/01/06 10:40:09;;;;;;;16.70;8.53;;;4.30;99.90;;;;;;4177880;28;20509;-81
2024/01/06 10:42:13;;;;;;;15.67;8.60;;;4.30;99.90;;;;;;4178024;28;20439;-80
2024/01/06 10:44:18;;;;;;;13.80;7.80;;;4.40;99.90;;;;;;4177171;28;20469;-84
2024/01/06 10:46:20;;;;;;;17.70;8.70;;;4.50;99.90;;;;;;4183609;28;20567;-82
2024/01/06 10:48:24;;;;;;;14.90;7.97;;;4.50;99.90;;;;;;4176856;28;20989;-79
2024/01/06 10:50:28;;;;;;;15.87;8.70;;;4.60;99.90;;;;;;4179258;28;20460;-82
2024/01/06 10:52:31;;;;;;;15.73;8.17;;;4.60;99.90;;;;;;4184795;28;20803;-76
2024/01/06 10:54:36;;;;;;;15.40;8.73;;;4.70;99.90;;;;;;4184745;28;20474;-78
2024/01/06 10:56:39;;;;;;;18.90;8.93;;;4.70;99.90;;;;;;4184955;28;21145;-78
2024/01/06 10:58:51;;;;;;;17.67;8.90;;;4.70;99.90;;;;;;4180564;28;20476;-77
2024/01/06 11:00:56;;;;;;;19.80;9.10;;;4.70;99.90;;;;;;4177551;28;20470;-77
2024/01/06 11:02:59;;;;;;;19.23;9.37;;;4.80;99.90;;;;;;4176920;28;20448;-80
2024/01/06 11:05:01;;;;;;;16.37;8.83;;;4.80;99.90;;;;;;4174430;28;20474;-77
2024/01/06 11:07:06;;;;;;;18.87;9.17;;;4.90;99.90;;;;;;4180557;28;20549;-80
2024/01/06 11:09:14;;;;;;;18.57;9.40;;;4.90;99.90;;;;;;4175736;28;20539;-77
2024/01/06 11:11:17;;;;;;;17.17;8.90;;;5.00;99.90;;;;;;4179889;28;20448;-78
2024/01/06 11:13:24;;;;;;;16.93;8.77;;;5.00;99.90;;;;;;4176544;28;20460;-79
2024/01/06 11:15:49;;;;;;;13.47;8.43;;;5.10;99.90;;;;;;4174982;28;20533;-81
2024/01/06 11:17:55;;;;;;;12.87;7.37;;;5.20;99.90;;;;;;4182684;28;20479;-78
2024/01/06 11:20:06;;;;;;;16.30;7.80;;;5.30;99.90;;;;;;4179463;28;20974;-83
2024/01/06 11:22:23;;;;;;;15.43;8.70;;;5.30;99.90;;;;;;4181397;28;20465;-76
2024/01/06 11:24:26;;;;;;;16.43;9.53;;;5.40;99.90;;;;;;4173413;28;20238;-79
2024/01/06 11:26:27;;;;;;;24.23;10.30;;;5.50;99.90;;;;;;4177648;28;20440;-78
2024/01/06 11:28:29;;;;;;;17.07;9.77;;;5.60;99.90;;;;;;4179588;28;21173;-78
2024/01/06 11:30:32;;;;;;;16.33;9.13;;;5.60;99.90;;;;;;4176878;28;20215;-77
2024/01/06 11:32:36;;;;;;;15.87;8.57;;;5.70;99.90;;;;;;4176349;28;20229;-79
2024/01/06 11:34:37;;;;;;;15.40;8.30;;;5.70;99.90;;;;;;4161030;28;20251;-79
2024/01/06 11:36:39;;;;;;;16.63;8.40;;;5.80;99.90;;;;;;4170651;28;20237;-80
2024/01/06 11:38:46;;;;;;;15.50;8.87;;;5.90;99.90;;;;;;4176031;28;20244;-81
2024/01/06 11:40:48;;;;;;;17.10;8.17;;;5.90;99.90;;;;;;4176900;28;20248;-81
2024/01/06 11:43:00;;;;;;;14.73;8.23;;;6.00;99.90;;;;;;4161071;28;20457;-80
2024/01/06 11:45:06;;;;;;;14.80;8.57;;;6.00;99.90;;;;;;4178336;28;20307;-80
2024/01/06 11:47:11;;;;;;;16.20;8.57;;;6.10;99.90;;;;;;4179946;28;20699;-80
2024/01/06 11:49:16;;;;;;;13.13;7.43;;;6.10;99.90;;;;;;4176201;28;20214;-79
2024/01/06 11:51:18;;;;;;;20.93;10.13;;;6.20;99.90;;;;;;4171887;28;20211;-77
2024/01/06 11:53:21;;;;;;;16.53;9.20;;;6.20;99.90;;;;;;4174789;28;20262;-82
2024/01/06 11:55:27;;;;;;;16.53;8.50;;;6.40;99.90;;;;;;4172740;28;20230;-79
2024/01/06 11:57:33;;;;;;;14.03;8.10;;;6.20;99.90;;;;;;4170512;28;20210;-78
2024/01/06 11:59:35;;;;;;;19.60;9.13;;;6.10;99.90;;;;;;4176820;28;20472;-76
2024/01/06 12:01:38;;;;;;;17.00;9.33;;;6.10;99.90;;;;;;4184909;28;20215;-77